sensor_id;sensor_type;location;lat;lon;timestamp;P1;durP1;ratioP1;P2;durP2;ratioP2
36291;SDS011;22327;51.208;6.418;2023-04-09T00:01:03;34.13;;;22.77;;
36291;SDS011;22327;51.208;6.418;2023-04-09T00:03:28;36.22;;;22.65;;
36291;SDS011;22327;51.208;6.418;2023-04-09T00:05:54;38.63;;;23.33;;
36291;SDS011;22327;51.208;6.418;2023-04-09T00:08:20;38.20;;;23.65;;
36291;SDS011;22327;51.208;6.418;2023-04-09T00:10:47;35.17;;;22.73;;
36291;SDS011;22327;51.208;6.418;2023-04-09T00:13:14;32.47;;;22.92;;
36291;SDS011;22327;51.208;6.418;2023-04-09T00:15:39;34.03;;;22.27;;
36291;SDS011;22327;51.208;6.418;2023-04-09T00:18:05;37.95;;;22.55;;
36291;SDS011;22327;51.208;6.418;2023-04-09T00:20:31;37.38;;;23.00;;
36291;SDS011;22327;51.208;6.418;2023-04-09T00:22:56;37.10;;;21.95;;
36291;SDS011;22327;51.208;6.418;2023-04-09T00:25:22;37.13;;;21.75;;
36291;SDS011;22327;51.208;6.418;2023-04-09T00:27:48;34.08;;;21.73;;
36291;SDS011;22327;51.208;6.418;2023-04-09T00:30:14;34.72;;;22.30;;
36291;SDS011;22327;51.208;6.418;2023-04-09T00:32:40;35.20;;;22.02;;
36291;SDS011;22327;51.208;6.418;2023-04-09T00:35:05;35.22;;;22.25;;
36291;SDS011;22327;51.208;6.418;2023-04-09T00:37:31;33.33;;;21.10;;
36291;SDS011;22327;51.208;6.418;2023-04-09T00:39:57;37.90;;;21.63;;
36291;SDS011;22327;51.208;6.418;2023-04-09T00:42:22;34.22;;;21.55;;
36291;SDS011;22327;51.208;6.418;2023-04-09T00:44:48;34.47;;;21.75;;
36291;SDS011;22327;51.208;6.418;2023-04-09T00:47:13;32.80;;;20.27;;
36291;SDS011;22327;51.208;6.418;2023-04-09T00:49:39;34.13;;;21.38;;
36291;SDS011;22327;51.208;6.418;2023-04-09T00:52:05;33.28;;;20.38;;
36291;SDS011;22327;51.208;6.418;2023-04-09T00:54:31;32.35;;;20.77;;
36291;SDS011;22327;51.208;6.418;2023-04-09T00:56:57;32.95;;;22.08;;
36291;SDS011;22327;51.208;6.418;2023-04-09T00:59:23;34.35;;;21.77;;
36291;SDS011;22327;51.208;6.418;2023-04-09T01:01:49;37.90;;;22.77;;
36291;SDS011;22327;51.208;6.418;2023-04-09T01:04:15;38.17;;;23.80;;
36291;SDS011;22327;51.208;6.418;2023-04-09T01:06:43;38.90;;;23.67;;
36291;SDS011;22327;51.208;6.418;2023-04-09T01:14:31;39.10;;;24.40;;
36291;SDS011;22327;51.208;6.418;2023-04-09T01:17:18;43.13;;;24.17;;
36291;SDS011;22327;51.208;6.418;2023-04-09T01:20:07;43.15;;;24.52;;
36291;SDS011;22327;51.208;6.418;2023-04-09T01:28:32;41.15;;;24.30;;
36291;SDS011;22327;51.208;6.418;2023-04-09T01:31:06;43.80;;;25.73;;
36291;SDS011;22327;51.208;6.418;2023-04-09T01:33:37;39.92;;;25.02;;
36291;SDS011;22327;51.208;6.418;2023-04-09T01:36:04;42.10;;;24.85;;
36291;SDS011;22327;51.208;6.418;2023-04-09T01:38:31;40.47;;;24.38;;
36291;SDS011;22327;51.208;6.418;2023-04-09T01:40:59;46.63;;;25.10;;
36291;SDS011;22327;51.208;6.418;2023-04-09T01:43:26;47.85;;;25.67;;
36291;SDS011;22327;51.208;6.418;2023-04-09T01:45:53;45.85;;;25.40;;
36291;SDS011;22327;51.208;6.418;2023-04-09T01:48:20;48.28;;;25.23;;
36291;SDS011;22327;51.208;6.418;2023-04-09T01:50:46;47.80;;;26.73;;
36291;SDS011;22327;51.208;6.418;2023-04-09T01:53:13;53.20;;;27.05;;
36291;SDS011;22327;51.208;6.418;2023-04-09T01:55:38;49.42;;;26.38;;
36291;SDS011;22327;51.208;6.418;2023-04-09T01:58:04;54.28;;;28.40;;
36291;SDS011;22327;51.208;6.418;2023-04-09T02:00:31;53.95;;;28.55;;
36291;SDS011;22327;51.208;6.418;2023-04-09T02:03:04;66.15;;;29.33;;
36291;SDS011;22327;51.208;6.418;2023-04-09T02:05:52;56.03;;;29.58;;
36291;SDS011;22327;51.208;6.418;2023-04-09T02:08:24;63.42;;;29.75;;
36291;SDS011;22327;51.208;6.418;2023-04-09T02:10:54;63.83;;;29.17;;
36291;SDS011;22327;51.208;6.418;2023-04-09T02:13:22;59.13;;;30.15;;
36291;SDS011;22327;51.208;6.418;2023-04-09T02:15:50;61.42;;;31.13;;
36291;SDS011;22327;51.208;6.418;2023-04-09T02:18:26;62.17;;;31.38;;
36291;SDS011;22327;51.208;6.418;2023-04-09T02:20:55;63.88;;;31.40;;
36291;SDS011;22327;51.208;6.418;2023-04-09T02:23:22;65.55;;;30.83;;
36291;SDS011;22327;51.208;6.418;2023-04-09T02:25:49;67.80;;;31.80;;
36291;SDS011;22327;51.208;6.418;2023-04-09T02:28:15;71.70;;;32.22;;
36291;SDS011;22327;51.208;6.418;2023-04-09T02:30:40;77.95;;;34.08;;
36291;SDS011;22327;51.208;6.418;2023-04-09T02:33:06;74.22;;;33.10;;
36291;SDS011;22327;51.208;6.418;2023-04-09T02:35:32;75.13;;;32.58;;
36291;SDS011;22327;51.208;6.418;2023-04-09T02:37:58;79.82;;;33.22;;
36291;SDS011;22327;51.208;6.418;2023-04-09T02:40:23;71.68;;;33.10;;
36291;SDS011;22327;51.208;6.418;2023-04-09T02:42:50;79.15;;;34.28;;
36291;SDS011;22327;51.208;6.418;2023-04-09T02:45:17;78.82;;;33.60;;
36291;SDS011;22327;51.208;6.418;2023-04-09T02:47:43;80.68;;;34.40;;
36291;SDS011;22327;51.208;6.418;2023-04-09T02:50:08;79.65;;;34.42;;
36291;SDS011;22327;51.208;6.418;2023-04-09T02:52:34;79.95;;;33.53;;
36291;SDS011;22327;51.208;6.418;2023-04-09T02:55:00;78.40;;;33.63;;
36291;SDS011;22327;51.208;6.418;2023-04-09T02:57:25;84.90;;;35.20;;
36291;SDS011;22327;51.208;6.418;2023-04-09T02:59:51;86.82;;;36.95;;
36291;SDS011;22327;51.208;6.418;2023-04-09T03:02:17;84.72;;;35.78;;
36291;SDS011;22327;51.208;6.418;2023-04-09T03:04:42;81.93;;;36.60;;
36291;SDS011;22327;51.208;6.418;2023-04-09T03:07:08;84.00;;;35.22;;
36291;SDS011;22327;51.208;6.418;2023-04-09T03:09:33;86.82;;;36.22;;
36291;SDS011;22327;51.208;6.418;2023-04-09T03:11:59;83.68;;;35.85;;
36291;SDS011;22327;51.208;6.418;2023-04-09T03:14:25;95.03;;;36.53;;
36291;SDS011;22327;51.208;6.418;2023-04-09T03:16:51;98.13;;;38.17;;
36291;SDS011;22327;51.208;6.418;2023-04-09T03:19:17;92.85;;;38.53;;
36291;SDS011;22327;51.208;6.418;2023-04-09T03:21:42;97.82;;;37.25;;
36291;SDS011;22327;51.208;6.418;2023-04-09T03:24:08;97.28;;;37.55;;
36291;SDS011;22327;51.208;6.418;2023-04-09T03:26:33;92.32;;;37.83;;
36291;SDS011;22327;51.208;6.418;2023-04-09T03:29:02;94.78;;;38.08;;
36291;SDS011;22327;51.208;6.418;2023-04-09T03:31:29;93.20;;;37.50;;
36291;SDS011;22327;51.208;6.418;2023-04-09T03:33:54;94.90;;;37.88;;
36291;SDS011;22327;51.208;6.418;2023-04-09T03:36:20;86.82;;;37.60;;
36291;SDS011;22327;51.208;6.418;2023-04-09T03:38:45;92.30;;;38.85;;
36291;SDS011;22327;51.208;6.418;2023-04-09T03:41:11;94.07;;;38.17;;
36291;SDS011;22327;51.208;6.418;2023-04-09T03:43:37;94.07;;;38.13;;
36291;SDS011;22327;51.208;6.418;2023-04-09T03:46:10;97.47;;;38.20;;
36291;SDS011;22327;51.208;6.418;2023-04-09T03:48:36;94.10;;;38.95;;
36291;SDS011;22327;51.208;6.418;2023-04-09T03:51:02;97.13;;;40.03;;
36291;SDS011;22327;51.208;6.418;2023-04-09T03:53:27;99.13;;;39.28;;
36291;SDS011;22327;51.208;6.418;2023-04-09T03:55:53;96.20;;;38.60;;
36291;SDS011;22327;51.208;6.418;2023-04-09T03:58:18;94.38;;;39.38;;
36291;SDS011;22327;51.208;6.418;2023-04-09T04:00:44;93.60;;;38.15;;
36291;SDS011;22327;51.208;6.418;2023-04-09T04:03:10;102.10;;;39.33;;
36291;SDS011;22327;51.208;6.418;2023-04-09T04:05:36;97.78;;;37.63;;
36291;SDS011;22327;51.208;6.418;2023-04-09T04:08:01;104.30;;;40.92;;
36291;SDS011;22327;51.208;6.418;2023-04-09T04:10:27;96.20;;;39.83;;
36291;SDS011;22327;51.208;6.418;2023-04-09T04:12:52;91.85;;;38.22;;
36291;SDS011;22327;51.208;6.418;2023-04-09T04:15:18;89.88;;;37.10;;
36291;SDS011;22327;51.208;6.418;2023-04-09T04:17:44;95.53;;;38.13;;
36291;SDS011;22327;51.208;6.418;2023-04-09T04:20:10;101.10;;;38.50;;
36291;SDS011;22327;51.208;6.418;2023-04-09T04:22:36;98.05;;;38.80;;
36291;SDS011;22327;51.208;6.418;2023-04-09T04:25:02;86.57;;;36.70;;
36291;SDS011;22327;51.208;6.418;2023-04-09T04:27:28;101.75;;;39.90;;
36291;SDS011;22327;51.208;6.418;2023-04-09T04:29:53;102.00;;;40.13;;
36291;SDS011;22327;51.208;6.418;2023-04-09T04:32:22;102.18;;;39.25;;
36291;SDS011;22327;51.208;6.418;2023-04-09T04:34:48;96.97;;;37.92;;
36291;SDS011;22327;51.208;6.418;2023-04-09T04:37:14;101.03;;;39.15;;
36291;SDS011;22327;51.208;6.418;2023-04-09T04:39:40;96.68;;;39.10;;
36291;SDS011;22327;51.208;6.418;2023-04-09T04:42:05;96.00;;;38.38;;
36291;SDS011;22327;51.208;6.418;2023-04-09T04:44:30;96.13;;;38.72;;
36291;SDS011;22327;51.208;6.418;2023-04-09T04:46:56;92.15;;;37.95;;
36291;SDS011;22327;51.208;6.418;2023-04-09T04:49:22;101.70;;;38.90;;
36291;SDS011;22327;51.208;6.418;2023-04-09T04:51:47;86.25;;;35.25;;
36291;SDS011;22327;51.208;6.418;2023-04-09T04:54:13;93.45;;;39.47;;
36291;SDS011;22327;51.208;6.418;2023-04-09T04:56:38;94.15;;;37.17;;
36291;SDS011;22327;51.208;6.418;2023-04-09T04:59:04;101.72;;;39.15;;
36291;SDS011;22327;51.208;6.418;2023-04-09T05:01:29;89.50;;;37.35;;
36291;SDS011;22327;51.208;6.418;2023-04-09T05:03:55;98.30;;;39.65;;
36291;SDS011;22327;51.208;6.418;2023-04-09T05:06:21;98.80;;;38.92;;
36291;SDS011;22327;51.208;6.418;2023-04-09T05:08:46;106.80;;;41.00;;
36291;SDS011;22327;51.208;6.418;2023-04-09T05:11:12;99.75;;;43.03;;
36291;SDS011;22327;51.208;6.418;2023-04-09T05:13:39;103.07;;;42.17;;
36291;SDS011;22327;51.208;6.418;2023-04-09T05:16:04;110.35;;;44.42;;
36291;SDS011;22327;51.208;6.418;2023-04-09T05:18:30;108.18;;;43.40;;
36291;SDS011;22327;51.208;6.418;2023-04-09T05:20:56;103.70;;;42.83;;
36291;SDS011;22327;51.208;6.418;2023-04-09T05:23:21;105.07;;;43.30;;
36291;SDS011;22327;51.208;6.418;2023-04-09T05:25:47;83.38;;;38.60;;
36291;SDS011;22327;51.208;6.418;2023-04-09T05:28:14;81.28;;;37.15;;
36291;SDS011;22327;51.208;6.418;2023-04-09T05:30:40;67.32;;;31.50;;
36291;SDS011;22327;51.208;6.418;2023-04-09T05:33:10;49.28;;;27.48;;
36291;SDS011;22327;51.208;6.418;2023-04-09T05:35:38;45.00;;;26.52;;
36291;SDS011;22327;51.208;6.418;2023-04-09T05:38:04;33.38;;;22.88;;
36291;SDS011;22327;51.208;6.418;2023-04-09T05:40:30;32.25;;;20.83;;
36291;SDS011;22327;51.208;6.418;2023-04-09T05:42:55;28.20;;;19.75;;
36291;SDS011;22327;51.208;6.418;2023-04-09T05:45:21;23.38;;;17.65;;
36291;SDS011;22327;51.208;6.418;2023-04-09T05:47:46;24.83;;;18.42;;
36291;SDS011;22327;51.208;6.418;2023-04-09T05:50:12;23.75;;;18.33;;
36291;SDS011;22327;51.208;6.418;2023-04-09T05:52:38;23.88;;;17.67;;
36291;SDS011;22327;51.208;6.418;2023-04-09T05:55:03;22.60;;;16.55;;
36291;SDS011;22327;51.208;6.418;2023-04-09T05:57:30;23.27;;;16.38;;
36291;SDS011;22327;51.208;6.418;2023-04-09T05:59:56;22.63;;;16.33;;
36291;SDS011;22327;51.208;6.418;2023-04-09T06:02:23;21.42;;;15.93;;
36291;SDS011;22327;51.208;6.418;2023-04-09T06:04:49;19.50;;;15.40;;
36291;SDS011;22327;51.208;6.418;2023-04-09T06:07:14;20.75;;;15.30;;
36291;SDS011;22327;51.208;6.418;2023-04-09T06:09:40;18.20;;;14.15;;
36291;SDS011;22327;51.208;6.418;2023-04-09T06:12:08;17.70;;;14.95;;
36291;SDS011;22327;51.208;6.418;2023-04-09T06:14:33;18.33;;;15.00;;
36291;SDS011;22327;51.208;6.418;2023-04-09T06:16:59;20.88;;;14.73;;
36291;SDS011;22327;51.208;6.418;2023-04-09T06:19:25;19.88;;;15.43;;
36291;SDS011;22327;51.208;6.418;2023-04-09T06:21:50;16.95;;;14.20;;
36291;SDS011;22327;51.208;6.418;2023-04-09T06:24:16;19.25;;;14.98;;
36291;SDS011;22327;51.208;6.418;2023-04-09T06:26:41;18.38;;;15.25;;
36291;SDS011;22327;51.208;6.418;2023-04-09T06:29:07;17.92;;;13.98;;
36291;SDS011;22327;51.208;6.418;2023-04-09T06:31:32;17.00;;;13.77;;
36291;SDS011;22327;51.208;6.418;2023-04-09T06:33:58;15.88;;;13.77;;
36291;SDS011;22327;51.208;6.418;2023-04-09T06:36:24;17.08;;;13.73;;
36291;SDS011;22327;51.208;6.418;2023-04-09T06:38:52;17.88;;;14.13;;
36291;SDS011;22327;51.208;6.418;2023-04-09T06:41:21;14.70;;;12.98;;
36291;SDS011;22327;51.208;6.418;2023-04-09T06:43:47;20.25;;;13.82;;
36291;SDS011;22327;51.208;6.418;2023-04-09T06:46:13;16.45;;;13.13;;
36291;SDS011;22327;51.208;6.418;2023-04-09T06:48:41;14.50;;;12.80;;
36291;SDS011;22327;51.208;6.418;2023-04-09T06:51:08;13.27;;;11.88;;
36291;SDS011;22327;51.208;6.418;2023-04-09T06:53:35;13.50;;;11.57;;
36291;SDS011;22327;51.208;6.418;2023-04-09T06:56:01;14.40;;;11.45;;
36291;SDS011;22327;51.208;6.418;2023-04-09T06:58:27;12.48;;;10.65;;
36291;SDS011;22327;51.208;6.418;2023-04-09T07:00:53;13.48;;;10.57;;
36291;SDS011;22327;51.208;6.418;2023-04-09T07:03:18;12.55;;;11.00;;
36291;SDS011;22327;51.208;6.418;2023-04-09T07:05:44;13.10;;;11.25;;
36291;SDS011;22327;51.208;6.418;2023-04-09T07:08:10;10.90;;;9.77;;
36291;SDS011;22327;51.208;6.418;2023-04-09T07:10:36;12.98;;;10.65;;
36291;SDS011;22327;51.208;6.418;2023-04-09T07:13:01;13.57;;;10.45;;
36291;SDS011;22327;51.208;6.418;2023-04-09T07:15:27;13.18;;;10.27;;
36291;SDS011;22327;51.208;6.418;2023-04-09T07:17:53;12.95;;;10.23;;
36291;SDS011;22327;51.208;6.418;2023-04-09T07:20:18;12.30;;;9.70;;
36291;SDS011;22327;51.208;6.418;2023-04-09T07:22:44;12.07;;;10.00;;
36291;SDS011;22327;51.208;6.418;2023-04-09T07:25:09;11.80;;;9.98;;
36291;SDS011;22327;51.208;6.418;2023-04-09T07:27:35;12.82;;;9.80;;
36291;SDS011;22327;51.208;6.418;2023-04-09T07:30:01;10.45;;;8.57;;
36291;SDS011;22327;51.208;6.418;2023-04-09T07:32:27;10.60;;;8.82;;
36291;SDS011;22327;51.208;6.418;2023-04-09T07:34:53;12.32;;;10.15;;
36291;SDS011;22327;51.208;6.418;2023-04-09T07:37:19;10.70;;;9.52;;
36291;SDS011;22327;51.208;6.418;2023-04-09T07:39:45;10.85;;;9.75;;
36291;SDS011;22327;51.208;6.418;2023-04-09T07:42:11;11.10;;;9.50;;
36291;SDS011;22327;51.208;6.418;2023-04-09T07:44:37;18.60;;;13.30;;
36291;SDS011;22327;51.208;6.418;2023-04-09T07:47:03;10.93;;;9.27;;
36291;SDS011;22327;51.208;6.418;2023-04-09T07:49:30;11.45;;;9.63;;
36291;SDS011;22327;51.208;6.418;2023-04-09T07:51:57;11.55;;;9.25;;
36291;SDS011;22327;51.208;6.418;2023-04-09T07:54:23;11.20;;;9.20;;
36291;SDS011;22327;51.208;6.418;2023-04-09T07:56:49;10.20;;;8.50;;
36291;SDS011;22327;51.208;6.418;2023-04-09T07:59:15;9.65;;;8.40;;
36291;SDS011;22327;51.208;6.418;2023-04-09T08:01:41;10.27;;;9.15;;
36291;SDS011;22327;51.208;6.418;2023-04-09T08:04:07;8.90;;;8.00;;
36291;SDS011;22327;51.208;6.418;2023-04-09T08:06:33;10.45;;;8.65;;
36291;SDS011;22327;51.208;6.418;2023-04-09T08:08:59;9.30;;;7.80;;
36291;SDS011;22327;51.208;6.418;2023-04-09T08:11:24;9.18;;;8.18;;
36291;SDS011;22327;51.208;6.418;2023-04-09T08:13:50;9.38;;;8.20;;
36291;SDS011;22327;51.208;6.418;2023-04-09T08:16:17;10.38;;;9.13;;
36291;SDS011;22327;51.208;6.418;2023-04-09T08:18:42;15.90;;;11.18;;
36291;SDS011;22327;51.208;6.418;2023-04-09T08:21:08;11.15;;;8.82;;
36291;SDS011;22327;51.208;6.418;2023-04-09T08:23:33;9.00;;;8.10;;
36291;SDS011;22327;51.208;6.418;2023-04-09T08:25:59;9.73;;;7.97;;
36291;SDS011;22327;51.208;6.418;2023-04-09T08:28:25;9.27;;;8.23;;
36291;SDS011;22327;51.208;6.418;2023-04-09T08:30:50;8.60;;;7.70;;
36291;SDS011;22327;51.208;6.418;2023-04-09T08:33:16;8.88;;;7.60;;
36291;SDS011;22327;51.208;6.418;2023-04-09T08:35:42;9.60;;;8.57;;
36291;SDS011;22327;51.208;6.418;2023-04-09T08:38:08;9.02;;;8.13;;
36291;SDS011;22327;51.208;6.418;2023-04-09T08:40:36;16.38;;;12.18;;
36291;SDS011;22327;51.208;6.418;2023-04-09T08:43:05;8.73;;;7.60;;
36291;SDS011;22327;51.208;6.418;2023-04-09T08:45:32;15.95;;;12.23;;
36291;SDS011;22327;51.208;6.418;2023-04-09T08:47:59;9.93;;;8.85;;
36291;SDS011;22327;51.208;6.418;2023-04-09T08:50:27;9.00;;;8.10;;
36291;SDS011;22327;51.208;6.418;2023-04-09T08:52:55;9.50;;;8.30;;
36291;SDS011;22327;51.208;6.418;2023-04-09T08:55:22;10.55;;;9.05;;
36291;SDS011;22327;51.208;6.418;2023-04-09T08:57:48;9.73;;;8.52;;
36291;SDS011;22327;51.208;6.418;2023-04-09T09:00:13;9.45;;;8.55;;
36291;SDS011;22327;51.208;6.418;2023-04-09T09:02:59;9.63;;;8.38;;
36291;SDS011;22327;51.208;6.418;2023-04-09T09:05:35;9.32;;;8.43;;
36291;SDS011;22327;51.208;6.418;2023-04-09T09:08:13;9.50;;;8.52;;
36291;SDS011;22327;51.208;6.418;2023-04-09T09:10:48;9.60;;;8.23;;
36291;SDS011;22327;51.208;6.418;2023-04-09T09:15:46;8.53;;;7.67;;
36291;SDS011;22327;51.208;6.418;2023-04-09T09:18:14;32.42;;;23.05;;
36291;SDS011;22327;51.208;6.418;2023-04-09T09:20:40;15.35;;;11.18;;
36291;SDS011;22327;51.208;6.418;2023-04-09T09:23:06;9.50;;;7.80;;
36291;SDS011;22327;51.208;6.418;2023-04-09T09:25:39;9.00;;;8.13;;
36291;SDS011;22327;51.208;6.418;2023-04-09T09:30:37;7.85;;;6.60;;
36291;SDS011;22327;51.208;6.418;2023-04-09T09:33:05;8.77;;;6.43;;
36291;SDS011;22327;51.208;6.418;2023-04-09T09:38:13;7.50;;;6.75;;
36291;SDS011;22327;51.208;6.418;2023-04-09T09:40:40;9.00;;;7.47;;
36291;SDS011;22327;51.208;6.418;2023-04-09T09:43:06;6.93;;;6.22;;
36291;SDS011;22327;51.208;6.418;2023-04-09T09:45:32;6.95;;;6.25;;
36291;SDS011;22327;51.208;6.418;2023-04-09T09:48:00;7.82;;;7.03;;
36291;SDS011;22327;51.208;6.418;2023-04-09T09:50:26;7.53;;;6.25;;
36291;SDS011;22327;51.208;6.418;2023-04-09T09:53:05;7.05;;;6.22;;
36291;SDS011;22327;51.208;6.418;2023-04-09T09:55:32;8.98;;;6.70;;
36291;SDS011;22327;51.208;6.418;2023-04-09T09:58:02;8.50;;;6.47;;
36291;SDS011;22327;51.208;6.418;2023-04-09T10:00:50;9.73;;;7.38;;
36291;SDS011;22327;51.208;6.418;2023-04-09T10:03:21;8.68;;;7.10;;
36291;SDS011;22327;51.208;6.418;2023-04-09T10:05:51;9.13;;;8.00;;
36291;SDS011;22327;51.208;6.418;2023-04-09T10:08:17;6.97;;;5.85;;
36291;SDS011;22327;51.208;6.418;2023-04-09T10:10:44;7.15;;;6.25;;
36291;SDS011;22327;51.208;6.418;2023-04-09T10:13:12;12.95;;;8.75;;
36291;SDS011;22327;51.208;6.418;2023-04-09T10:15:45;9.57;;;6.90;;
36291;SDS011;22327;51.208;6.418;2023-04-09T10:18:11;7.30;;;6.25;;
36291;SDS011;22327;51.208;6.418;2023-04-09T10:20:42;7.88;;;6.03;;
36291;SDS011;22327;51.208;6.418;2023-04-09T10:23:18;7.15;;;5.82;;
36291;SDS011;22327;51.208;6.418;2023-04-09T10:25:51;8.07;;;5.05;;
36291;SDS011;22327;51.208;6.418;2023-04-09T10:28:17;6.63;;;4.72;;
36291;SDS011;22327;51.208;6.418;2023-04-09T10:30:43;6.53;;;4.63;;
36291;SDS011;22327;51.208;6.418;2023-04-09T10:33:09;7.00;;;6.05;;
36291;SDS011;22327;51.208;6.418;2023-04-09T10:35:36;5.60;;;4.32;;
36291;SDS011;22327;51.208;6.418;2023-04-09T10:38:01;5.95;;;4.80;;
36291;SDS011;22327;51.208;6.418;2023-04-09T10:40:27;6.13;;;5.00;;
36291;SDS011;22327;51.208;6.418;2023-04-09T10:42:53;8.75;;;5.65;;
36291;SDS011;22327;51.208;6.418;2023-04-09T10:45:21;7.15;;;6.05;;
36291;SDS011;22327;51.208;6.418;2023-04-09T10:47:48;6.85;;;5.63;;
36291;SDS011;22327;51.208;6.418;2023-04-09T10:50:18;6.70;;;5.68;;
36291;SDS011;22327;51.208;6.418;2023-04-09T10:52:45;8.55;;;6.13;;
36291;SDS011;22327;51.208;6.418;2023-04-09T10:55:31;8.95;;;6.57;;
36291;SDS011;22327;51.208;6.418;2023-04-09T10:58:04;7.90;;;6.10;;
36291;SDS011;22327;51.208;6.418;2023-04-09T11:00:32;7.15;;;5.75;;
36291;SDS011;22327;51.208;6.418;2023-04-09T11:03:05;11.35;;;8.15;;
36291;SDS011;22327;51.208;6.418;2023-04-09T11:05:43;7.47;;;6.63;;
36291;SDS011;22327;51.208;6.418;2023-04-09T11:08:13;6.80;;;5.55;;
36291;SDS011;22327;51.208;6.418;2023-04-09T11:10:40;6.07;;;5.13;;
36291;SDS011;22327;51.208;6.418;2023-04-09T11:13:11;6.47;;;5.38;;
36291;SDS011;22327;51.208;6.418;2023-04-09T11:15:38;8.52;;;5.90;;
36291;SDS011;22327;51.208;6.418;2023-04-09T11:18:03;6.80;;;5.15;;
36291;SDS011;22327;51.208;6.418;2023-04-09T11:20:34;5.93;;;4.90;;
36291;SDS011;22327;51.208;6.418;2023-04-09T11:23:00;6.55;;;5.25;;
36291;SDS011;22327;51.208;6.418;2023-04-09T11:25:29;6.32;;;4.88;;
36291;SDS011;22327;51.208;6.418;2023-04-09T11:27:56;9.32;;;6.10;;
36291;SDS011;22327;51.208;6.418;2023-04-09T11:30:21;8.75;;;6.45;;
36291;SDS011;22327;51.208;6.418;2023-04-09T11:32:47;6.75;;;5.13;;
36291;SDS011;22327;51.208;6.418;2023-04-09T11:35:15;8.18;;;5.57;;
36291;SDS011;22327;51.208;6.418;2023-04-09T11:37:42;5.45;;;4.60;;
36291;SDS011;22327;51.208;6.418;2023-04-09T11:40:21;5.72;;;4.88;;
36291;SDS011;22327;51.208;6.418;2023-04-09T11:42:49;6.40;;;4.72;;
36291;SDS011;22327;51.208;6.418;2023-04-09T11:45:19;7.00;;;5.30;;
36291;SDS011;22327;51.208;6.418;2023-04-09T11:47:47;6.20;;;4.97;;
36291;SDS011;22327;51.208;6.418;2023-04-09T11:50:13;5.97;;;4.93;;
36291;SDS011;22327;51.208;6.418;2023-04-09T11:52:40;5.47;;;4.85;;
36291;SDS011;22327;51.208;6.418;2023-04-09T11:55:06;5.63;;;5.00;;
36291;SDS011;22327;51.208;6.418;2023-04-09T11:57:43;6.32;;;5.63;;
36291;SDS011;22327;51.208;6.418;2023-04-09T12:00:11;6.65;;;5.43;;
36291;SDS011;22327;51.208;6.418;2023-04-09T12:02:48;6.18;;;5.05;;
36291;SDS011;22327;51.208;6.418;2023-04-09T12:05:21;5.82;;;5.00;;
36291;SDS011;22327;51.208;6.418;2023-04-09T12:07:55;5.85;;;4.85;;
36291;SDS011;22327;51.208;6.418;2023-04-09T12:10:28;5.47;;;4.45;;
36291;SDS011;22327;51.208;6.418;2023-04-09T12:13:02;6.40;;;4.90;;
36291;SDS011;22327;51.208;6.418;2023-04-09T12:15:35;6.70;;;4.47;;
36291;SDS011;22327;51.208;6.418;2023-04-09T12:18:02;6.43;;;4.80;;
36291;SDS011;22327;51.208;6.418;2023-04-09T12:20:35;6.03;;;5.10;;
36291;SDS011;22327;51.208;6.418;2023-04-09T12:23:03;5.82;;;4.25;;
36291;SDS011;22327;51.208;6.418;2023-04-09T12:25:30;6.18;;;4.53;;
36291;SDS011;22327;51.208;6.418;2023-04-09T12:28:00;5.00;;;4.50;;
36291;SDS011;22327;51.208;6.418;2023-04-09T12:30:27;7.05;;;5.13;;
36291;SDS011;22327;51.208;6.418;2023-04-09T12:32:53;6.05;;;4.40;;
36291;SDS011;22327;51.208;6.418;2023-04-09T12:35:20;5.07;;;4.32;;
36291;SDS011;22327;51.208;6.418;2023-04-09T12:37:46;5.45;;;4.60;;
36291;SDS011;22327;51.208;6.418;2023-04-09T12:40:12;4.95;;;4.13;;
36291;SDS011;22327;51.208;6.418;2023-04-09T12:42:41;7.72;;;4.68;;
36291;SDS011;22327;51.208;6.418;2023-04-09T12:45:09;6.85;;;5.10;;
36291;SDS011;22327;51.208;6.418;2023-04-09T12:47:37;6.78;;;4.93;;
36291;SDS011;22327;51.208;6.418;2023-04-09T12:50:03;5.10;;;4.18;;
36291;SDS011;22327;51.208;6.418;2023-04-09T12:52:30;5.10;;;4.35;;
36291;SDS011;22327;51.208;6.418;2023-04-09T12:54:55;4.97;;;4.15;;
36291;SDS011;22327;51.208;6.418;2023-04-09T12:57:21;6.15;;;4.35;;
36291;SDS011;22327;51.208;6.418;2023-04-09T12:59:46;6.18;;;4.47;;
36291;SDS011;22327;51.208;6.418;2023-04-09T13:02:12;6.22;;;4.32;;
36291;SDS011;22327;51.208;6.418;2023-04-09T13:04:37;6.95;;;4.68;;
36291;SDS011;22327;51.208;6.418;2023-04-09T13:07:03;5.13;;;4.32;;
36291;SDS011;22327;51.208;6.418;2023-04-09T13:09:28;6.25;;;3.88;;
36291;SDS011;22327;51.208;6.418;2023-04-09T13:11:54;6.28;;;4.72;;
36291;SDS011;22327;51.208;6.418;2023-04-09T13:14:20;5.65;;;4.55;;
36291;SDS011;22327;51.208;6.418;2023-04-09T13:16:45;6.00;;;4.50;;
36291;SDS011;22327;51.208;6.418;2023-04-09T13:19:11;6.68;;;4.70;;
36291;SDS011;22327;51.208;6.418;2023-04-09T13:21:37;5.53;;;4.25;;
36291;SDS011;22327;51.208;6.418;2023-04-09T13:24:02;5.93;;;4.63;;
36291;SDS011;22327;51.208;6.418;2023-04-09T13:26:31;5.30;;;4.07;;
36291;SDS011;22327;51.208;6.418;2023-04-09T13:28:57;5.00;;;4.47;;
36291;SDS011;22327;51.208;6.418;2023-04-09T13:31:26;5.40;;;4.50;;
36291;SDS011;22327;51.208;6.418;2023-04-09T13:33:51;6.20;;;4.60;;
36291;SDS011;22327;51.208;6.418;2023-04-09T13:36:17;5.60;;;4.15;;
36291;SDS011;22327;51.208;6.418;2023-04-09T13:38:42;5.85;;;4.53;;
36291;SDS011;22327;51.208;6.418;2023-04-09T13:41:08;7.07;;;4.60;;
36291;SDS011;22327;51.208;6.418;2023-04-09T13:43:33;6.22;;;4.50;;
36291;SDS011;22327;51.208;6.418;2023-04-09T13:45:59;6.43;;;4.70;;
36291;SDS011;22327;51.208;6.418;2023-04-09T13:48:24;5.80;;;4.78;;
36291;SDS011;22327;51.208;6.418;2023-04-09T13:50:50;5.10;;;4.30;;
36291;SDS011;22327;51.208;6.418;2023-04-09T13:53:16;5.35;;;4.00;;
36291;SDS011;22327;51.208;6.418;2023-04-09T13:55:44;5.60;;;4.35;;
36291;SDS011;22327;51.208;6.418;2023-04-09T13:58:10;7.93;;;5.45;;
36291;SDS011;22327;51.208;6.418;2023-04-09T14:00:36;4.97;;;4.25;;
36291;SDS011;22327;51.208;6.418;2023-04-09T14:03:02;6.47;;;4.55;;
36291;SDS011;22327;51.208;6.418;2023-04-09T14:05:28;5.78;;;4.22;;
36291;SDS011;22327;51.208;6.418;2023-04-09T14:07:54;5.53;;;4.93;;
36291;SDS011;22327;51.208;6.418;2023-04-09T14:10:20;5.45;;;4.63;;
36291;SDS011;22327;51.208;6.418;2023-04-09T14:12:46;5.57;;;4.53;;
36291;SDS011;22327;51.208;6.418;2023-04-09T14:15:12;5.75;;;4.57;;
36291;SDS011;22327;51.208;6.418;2023-04-09T14:17:38;5.22;;;4.22;;
36291;SDS011;22327;51.208;6.418;2023-04-09T14:20:03;5.72;;;4.70;;
36291;SDS011;22327;51.208;6.418;2023-04-09T14:22:29;6.03;;;4.30;;
36291;SDS011;22327;51.208;6.418;2023-04-09T14:24:55;6.18;;;4.35;;
36291;SDS011;22327;51.208;6.418;2023-04-09T14:27:21;4.50;;;4.00;;
36291;SDS011;22327;51.208;6.418;2023-04-09T14:29:46;5.03;;;4.15;;
36291;SDS011;22327;51.208;6.418;2023-04-09T14:32:12;6.00;;;4.53;;
36291;SDS011;22327;51.208;6.418;2023-04-09T14:34:37;5.70;;;4.88;;
36291;SDS011;22327;51.208;6.418;2023-04-09T14:37:03;6.05;;;4.55;;
36291;SDS011;22327;51.208;6.418;2023-04-09T14:39:28;6.53;;;4.60;;
36291;SDS011;22327;51.208;6.418;2023-04-09T14:41:54;5.10;;;4.15;;
36291;SDS011;22327;51.208;6.418;2023-04-09T14:44:21;6.38;;;4.50;;
36291;SDS011;22327;51.208;6.418;2023-04-09T14:46:49;5.45;;;4.57;;
36291;SDS011;22327;51.208;6.418;2023-04-09T14:49:15;6.28;;;4.30;;
36291;SDS011;22327;51.208;6.418;2023-04-09T14:51:41;6.72;;;4.30;;